createdAt,value
2023-03-27T00:00:13.258Z,101350.41
2023-03-27T00:02:41.956Z,101361.47
2023-03-27T00:05:12.367Z,101365.97
2023-03-27T00:07:41.540Z,101362.72
2023-03-27T00:10:10.346Z,101359.78
2023-03-27T00:12:39.274Z,101366.09
2023-03-27T00:15:08.438Z,101370.97
2023-03-27T00:17:36.963Z,101367.97
2023-03-27T00:20:06.613Z,101374.16
2023-03-27T00:22:35.943Z,101369.28
2023-03-27T00:25:04.082Z,101366.69
2023-03-27T00:27:32.703Z,101374.81
2023-03-27T00:30:01.067Z,101375.53
2023-03-27T00:32:29.414Z,101378.53
2023-03-27T00:34:57.807Z,101379.63
2023-03-27T00:37:26.100Z,101375.19
2023-03-27T00:39:55.765Z,101380.59
2023-03-27T00:42:24.266Z,101381.31
2023-03-27T00:44:52.558Z,101389.44
2023-03-27T00:47:24.034Z,101389.28
2023-03-27T00:49:52.699Z,101389.28
2023-03-27T00:52:21.454Z,101388.56
2023-03-27T00:54:50.073Z,101395.25
2023-03-27T00:57:22.039Z,101406.72
2023-03-27T00:59:55.068Z,101413.00
2023-03-27T01:02:24.195Z,101413.66
2023-03-27T01:04:52.936Z,101419.56
2023-03-27T01:07:22.561Z,101413.84
2023-03-27T01:09:51.351Z,101417.75
2023-03-27T01:12:40.917Z,101409.69
2023-03-27T01:15:21.629Z,101422.84
2023-03-27T01:18:04.261Z,101432.75
2023-03-27T01:21:12.369Z,101420.53
2023-03-27T01:24:11.564Z,101424.13
2023-03-27T01:26:57.939Z,101416.88
2023-03-27T01:29:39.790Z,101416.63
2023-03-27T01:32:50.709Z,101418.78
2023-03-27T01:35:33.603Z,101419.94
2023-03-27T01:38:42.939Z,101427.34
2023-03-27T01:41:15.760Z,101430.16
2023-03-27T01:43:52.774Z,101420.13
2023-03-27T01:46:26.667Z,101422.44
2023-03-27T01:49:00.364Z,101431.91
2023-03-27T01:51:34.838Z,101432.03
2023-03-27T01:54:10.552Z,101430.31
2023-03-27T01:56:41.718Z,101429.59
2023-03-27T01:59:11.588Z,101419.84
2023-03-27T02:01:41.069Z,101425.16
2023-03-27T02:04:14.063Z,101427.72
2023-03-27T02:06:44.774Z,101435.66
2023-03-27T02:09:15.140Z,101445.97
2023-03-27T02:11:45.954Z,101457.94
2023-03-27T02:14:14.834Z,101461.91
2023-03-27T02:16:46.327Z,101459.97
2023-03-27T02:19:20.812Z,101469.56
2023-03-27T02:21:49.076Z,101476.88
2023-03-27T02:24:18.106Z,101471.06
2023-03-27T02:26:52.182Z,101482.03
2023-03-27T02:29:32.720Z,101479.34
2023-03-27T02:32:11.158Z,101479.31
2023-03-27T02:34:49.243Z,101480.19
2023-03-27T02:37:21.306Z,101478.34
2023-03-27T02:40:33.136Z,101491.25
2023-03-27T02:43:33.740Z,101478.84
2023-03-27T02:46:06.294Z,101471.47
2023-03-27T02:48:38.863Z,101481.31
2023-03-27T02:51:09.099Z,101480.09
2023-03-27T02:53:39.833Z,101475.16
2023-03-27T02:56:09.022Z,101483.13
2023-03-27T02:58:40.855Z,101472.69
2023-03-27T03:01:17.358Z,101485.97
2023-03-27T03:04:07.468Z,101489.28
2023-03-27T03:07:07.572Z,101489.53
2023-03-27T03:09:40.618Z,101484.75
2023-03-27T03:12:09.872Z,101487.09
2023-03-27T03:14:47.443Z,101490.41
2023-03-27T03:17:16.262Z,101495.22
2023-03-27T03:19:46.061Z,101486.13
2023-03-27T03:22:14.138Z,101492.25
2023-03-27T03:24:43.771Z,101494.81
2023-03-27T03:27:14.876Z,101501.22
2023-03-27T03:30:00.246Z,101500.25
2023-03-27T03:32:30.419Z,101503.56
2023-03-27T03:34:58.738Z,101502.81
2023-03-27T03:37:28.725Z,101499.75
2023-03-27T03:39:59.067Z,101509.34
2023-03-27T03:42:26.922Z,101506.03
2023-03-27T03:44:54.803Z,101500.97
2023-03-27T03:47:25.469Z,101508.97
2023-03-27T03:49:53.412Z,101518.19
2023-03-27T03:52:21.347Z,101519.19
2023-03-27T03:54:49.583Z,101528.28
2023-03-27T03:57:18.738Z,101532.72
2023-03-27T04:00:01.057Z,101546.25
2023-03-27T04:02:46.404Z,101549.72
2023-03-27T04:05:17.167Z,101543.41
2023-03-27T04:07:45.651Z,101543.41
2023-03-27T04:10:38.038Z,101543.84
2023-03-27T04:13:09.746Z,101547.31
2023-03-27T04:15:44.709Z,101544.59
2023-03-27T04:18:20.412Z,101553.72
2023-03-27T04:20:50.341Z,101551.00
2023-03-27T04:23:20.372Z,101544.00
2023-03-27T04:25:49.078Z,101558.91
2023-03-27T04:28:22.955Z,101565.31
2023-03-27T04:31:01.293Z,101568.28
2023-03-27T04:33:30.881Z,101567.78
2023-03-27T04:36:17.516Z,101569.25
2023-03-27T04:38:54.310Z,101577.88
2023-03-27T04:41:22.339Z,101583.00
2023-03-27T04:43:50.702Z,101589.91
2023-03-27T04:46:18.696Z,101587.19
2023-03-27T04:48:53.356Z,101603.66
2023-03-27T04:51:33.778Z,101608.66
2023-03-27T04:54:04.844Z,101606.88
2023-03-27T04:56:33.801Z,101614.91
2023-03-27T04:59:03.333Z,101615.75
2023-03-27T05:01:31.571Z,101621.47
2023-03-27T05:04:19.033Z,101629.13
2023-03-27T05:07:13.253Z,101622.16
2023-03-27T05:09:42.122Z,101616.75
2023-03-27T05:12:10.752Z,101618.03
2023-03-27T05:14:49.636Z,101617.28
2023-03-27T05:17:44.690Z,101620.38
2023-03-27T05:20:16.948Z,101632.75
2023-03-27T05:22:44.970Z,101631.19
2023-03-27T05:25:42.697Z,101641.16
2023-03-27T05:28:14.556Z,101654.06
2023-03-27T05:30:47.488Z,101661.38
2023-03-27T05:33:17.624Z,101656.75
2023-03-27T05:35:48.490Z,101667.94
2023-03-27T05:38:16.963Z,101657.38
2023-03-27T05:40:57.986Z,101661.66
2023-03-27T05:43:26.404Z,101660.56
2023-03-27T05:45:54.701Z,101674.63
2023-03-27T05:48:23.425Z,101676.69
2023-03-27T05:50:53.326Z,101678.69
2023-03-27T05:53:28.657Z,101684.63
2023-03-27T05:56:32.789Z,101690.44
2023-03-27T05:59:03.667Z,101688.16
2023-03-27T06:01:35.909Z,101681.16
2023-03-27T06:04:04.442Z,101683.22
2023-03-27T06:06:53.037Z,101692.38
2023-03-27T06:09:21.605Z,101689.66
2023-03-27T06:12:10.786Z,101695.06
2023-03-27T06:14:40.141Z,101683.44
2023-03-27T06:17:34.828Z,101691.16
2023-03-27T06:20:11.243Z,101694.75
2023-03-27T06:22:42.495Z,101703.19
2023-03-27T06:25:10.710Z,101699.78
2023-03-27T06:27:39.222Z,101703.50
2023-03-27T06:30:07.729Z,101717.28
2023-03-27T06:32:37.044Z,101717.16
2023-03-27T06:35:11.166Z,101717.28
2023-03-27T06:37:56.709Z,101721.31
2023-03-27T06:40:28.234Z,101719.47
2023-03-27T06:43:01.281Z,101723.72
2023-03-27T06:45:37.713Z,101727.94
2023-03-27T06:48:24.999Z,101725.13
2023-03-27T06:50:57.233Z,101728.50
2023-03-27T06:53:28.322Z,101728.53
2023-03-27T06:55:58.226Z,101734.66
2023-03-27T06:58:28.046Z,101745.31
2023-03-27T07:00:57.093Z,101742.13
2023-03-27T07:03:43.254Z,101740.47
2023-03-27T07:06:29.744Z,101754.00
2023-03-27T07:09:05.890Z,101757.84
2023-03-27T07:11:34.270Z,101757.34
2023-03-27T07:14:08.836Z,101761.09
2023-03-27T07:16:36.728Z,101767.94
2023-03-27T07:19:05.932Z,101770.06
2023-03-27T07:21:36.069Z,101782.41
2023-03-27T07:24:06.828Z,101774.56
2023-03-27T07:26:38.225Z,101783.84
2023-03-27T07:29:22.458Z,101785.09
2023-03-27T07:31:58.558Z,101791.41
2023-03-27T07:34:41.101Z,101800.63
2023-03-27T07:37:18.248Z,101798.41
2023-03-27T07:40:07.820Z,101812.16
2023-03-27T07:42:36.712Z,101802.34
2023-03-27T07:45:08.083Z,101803.31
2023-03-27T07:47:36.624Z,101829.81
2023-03-27T07:50:05.018Z,101848.19
2023-03-27T07:52:34.815Z,101829.03
2023-03-27T07:55:07.500Z,101822.88
2023-03-27T07:57:58.006Z,101820.94
2023-03-27T08:00:30.189Z,101821.25
2023-03-27T08:03:10.775Z,101822.84
2023-03-27T08:05:44.148Z,101824.56
2023-03-27T08:08:16.134Z,101831.81
2023-03-27T08:11:04.543Z,101825.00
2023-03-27T08:13:37.161Z,101827.88
2023-03-27T08:16:09.720Z,101840.75
2023-03-27T08:18:38.824Z,101833.47
2023-03-27T08:21:09.375Z,101832.75
2023-03-27T08:23:39.014Z,101853.63
2023-03-27T08:26:28.209Z,101837.00
2023-03-27T08:29:04.297Z,101832.84
2023-03-27T08:31:33.557Z,101836.38
2023-03-27T08:34:03.378Z,101833.56
2023-03-27T08:36:41.290Z,101830.22
2023-03-27T08:39:09.655Z,101835.88
2023-03-27T08:41:50.679Z,101822.78
2023-03-27T08:44:27.813Z,101831.66
2023-03-27T08:46:57.004Z,101839.84
2023-03-27T08:49:28.672Z,101849.03
2023-03-27T08:52:22.813Z,101849.03
2023-03-27T08:54:58.378Z,101848.47
2023-03-27T08:57:37.405Z,101857.94
2023-03-27T09:00:22.801Z,101847.63
2023-03-27T09:03:00.250Z,101865.13
2023-03-27T09:05:35.591Z,101862.13
2023-03-27T09:08:10.384Z,101869.66
2023-03-27T09:10:44.747Z,101869.81
2023-03-27T09:13:34.936Z,101879.44
2023-03-27T09:16:05.736Z,101878.66
2023-03-27T09:18:36.964Z,101877.44
2023-03-27T09:21:16.100Z,101894.66
2023-03-27T09:23:46.343Z,101893.22
2023-03-27T09:26:44.453Z,101883.03
2023-03-27T09:29:39.933Z,101888.03
2023-03-27T09:32:28.035Z,101899.78
2023-03-27T09:35:02.003Z,101890.34
2023-03-27T09:37:30.926Z,101896.72
2023-03-27T09:40:01.341Z,101901.09
2023-03-27T09:42:38.721Z,101896.78
2023-03-27T09:45:14.047Z,101897.50
2023-03-27T09:48:01.635Z,101907.47
2023-03-27T09:50:44.612Z,101903.06
2023-03-27T09:53:59.506Z,101945.16
2023-03-27T09:56:37.664Z,101905.03
2023-03-27T09:59:11.703Z,101911.00
2023-03-27T10:01:48.249Z,101908.00
2023-03-27T10:04:22.160Z,101912.69
2023-03-27T10:07:01.699Z,101907.63
2023-03-27T10:10:09.069Z,101916.88
2023-03-27T10:13:01.233Z,101916.22
2023-03-27T10:15:39.056Z,101918.44
2023-03-27T10:18:25.860Z,101917.41
2023-03-27T10:20:58.757Z,101916.88
2023-03-27T10:23:30.817Z,101937.22
2023-03-27T10:26:01.571Z,101929.19
2023-03-27T10:28:45.370Z,101933.69
2023-03-27T10:31:33.401Z,101934.84
2023-03-27T10:34:42.151Z,101962.06
2023-03-27T10:37:36.669Z,101927.69
2023-03-27T10:40:40.696Z,101946.28
2023-03-27T10:43:25.620Z,101947.63
2023-03-27T10:45:57.767Z,101956.50
2023-03-27T10:48:38.310Z,101956.00
2023-03-27T10:51:17.163Z,101948.06
2023-03-27T10:54:06.750Z,101940.97
2023-03-27T10:56:58.325Z,101954.31
2023-03-27T10:59:41.512Z,101945.41
2023-03-27T11:02:21.746Z,101939.50
2023-03-27T11:05:02.612Z,101963.16
2023-03-27T11:07:41.141Z,101962.88
2023-03-27T11:10:22.321Z,101940.38
2023-03-27T11:12:58.396Z,101953.88
2023-03-27T11:15:33.341Z,101967.78
2023-03-27T11:18:10.181Z,102000.50
2023-03-27T11:20:51.260Z,101995.28
2023-03-27T11:23:37.266Z,102052.31
2023-03-27T11:26:33.731Z,102035.88
2023-03-27T11:29:09.574Z,102021.41
2023-03-27T11:31:47.859Z,102019.88
2023-03-27T11:34:34.410Z,102013.81
2023-03-27T11:37:32.848Z,102014.16
2023-03-27T11:40:10.291Z,102005.78
2023-03-27T11:42:40.706Z,102008.91
2023-03-27T11:45:13.218Z,102003.66
2023-03-27T11:48:03.414Z,102011.50
2023-03-27T11:50:49.427Z,102004.69
2023-03-27T11:53:38.160Z,102015.38
2023-03-27T11:56:31.826Z,102007.91
2023-03-27T11:59:35.853Z,102018.47
2023-03-27T12:02:20.679Z,102019.06
2023-03-27T12:04:56.809Z,102012.44
2023-03-27T12:07:54.221Z,102025.47
2023-03-27T12:10:31.824Z,102014.22
2023-03-27T12:13:58.129Z,102023.31
2023-03-27T12:16:49.688Z,102028.19
2023-03-27T12:19:41.936Z,102048.25
2023-03-27T12:22:31.518Z,102048.16
2023-03-27T12:25:29.146Z,102038.69
2023-03-27T12:28:52.071Z,102039.44
2023-03-27T12:31:54.087Z,102048.69
2023-03-27T12:34:37.406Z,102049.50
2023-03-27T12:37:10.612Z,102050.72
2023-03-27T12:39:50.733Z,102053.81
2023-03-27T12:42:43.954Z,102051.06
2023-03-27T12:45:17.996Z,102072.44
2023-03-27T12:48:16.364Z,102053.00
2023-03-27T12:50:48.384Z,102059.28
2023-03-27T12:53:50.524Z,102065.91
2023-03-27T12:56:36.089Z,102067.31
2023-03-27T12:59:19.345Z,102050.19
2023-03-27T13:02:11.957Z,102072.00
2023-03-27T13:04:59.553Z,102058.69
2023-03-27T13:07:35.886Z,102078.84
2023-03-27T13:10:25.882Z,102065.47
2023-03-27T13:13:10.693Z,102064.31
2023-03-27T13:15:52.734Z,102055.56
2023-03-27T13:18:36.102Z,102047.53
2023-03-27T13:21:15.038Z,102053.13
2023-03-27T13:23:49.013Z,102081.22
2023-03-27T13:26:39.158Z,102075.50
2023-03-27T13:29:14.222Z,102107.22
2023-03-27T13:32:12.817Z,102086.88
2023-03-27T13:35:01.491Z,102083.34
2023-03-27T13:37:49.275Z,102082.47
2023-03-27T13:40:27.399Z,102095.41
2023-03-27T13:43:13.735Z,102092.88
2023-03-27T13:45:46.836Z,102081.44
2023-03-27T13:48:45.226Z,102079.53
2023-03-27T13:51:24.681Z,102092.03
2023-03-27T13:54:10.752Z,102085.19
2023-03-27T13:56:53.136Z,102079.03
2023-03-27T13:59:46.416Z,102071.28
2023-03-27T14:02:36.292Z,102078.69
2023-03-27T14:05:20.307Z,102078.31
2023-03-27T14:08:21.027Z,102076.47
2023-03-27T14:11:28.662Z,102081.28
2023-03-27T14:14:21.757Z,102089.31
2023-03-27T14:17:17.780Z,102087.09
2023-03-27T14:20:14.680Z,102086.47
2023-03-27T14:22:49.477Z,102110.81
2023-03-27T14:25:25.280Z,102106.97
2023-03-27T14:27:59.552Z,102088.19
2023-03-27T14:30:31.604Z,102107.97
2023-03-27T14:33:20.345Z,102107.72
2023-03-27T14:35:55.729Z,102114.00
2023-03-27T14:38:26.079Z,102113.84
2023-03-27T14:40:56.998Z,102111.88
2023-03-27T14:43:45.628Z,102114.47
2023-03-27T14:46:16.142Z,102124.22
2023-03-27T14:48:46.106Z,102123.88
2023-03-27T14:51:15.575Z,102130.94
2023-03-27T14:53:45.112Z,102131.66
2023-03-27T14:56:25.931Z,102131.78
2023-03-27T14:59:20.641Z,102117.00
2023-03-27T15:01:56.728Z,102145.22
2023-03-27T15:04:25.717Z,102129.19
2023-03-27T15:07:14.422Z,102153.38
2023-03-27T15:10:02.035Z,102135.75
2023-03-27T15:12:50.028Z,102137.72
2023-03-27T15:15:26.356Z,102140.66
2023-03-27T15:17:59.999Z,102163.06
2023-03-27T15:20:30.457Z,102152.75
2023-03-27T15:23:01.471Z,102150.13
2023-03-27T15:25:34.057Z,102159.41
2023-03-27T15:28:06.471Z,102152.34
2023-03-27T15:30:37.612Z,102153.41
2023-03-27T15:33:09.188Z,102144.50
2023-03-27T15:35:40.272Z,102159.78
2023-03-27T15:38:12.885Z,102166.22
2023-03-27T15:40:43.373Z,102172.47
2023-03-27T15:43:22.124Z,102168.22
2023-03-27T15:46:11.073Z,102178.78
2023-03-27T15:48:44.099Z,102166.25
2023-03-27T15:51:13.326Z,102180.31
2023-03-27T15:53:42.103Z,102182.69
2023-03-27T15:56:17.921Z,102175.81
2023-03-27T15:58:47.882Z,102190.59
2023-03-27T16:01:23.980Z,102187.78
2023-03-27T16:03:54.358Z,102184.13
2023-03-27T16:06:26.690Z,102188.69
2023-03-27T16:08:55.055Z,102184.78
2023-03-27T16:11:36.788Z,102184.19
2023-03-27T16:14:05.098Z,102179.75
2023-03-27T16:16:34.266Z,102185.69
2023-03-27T16:19:04.627Z,102186.91
2023-03-27T16:21:36.110Z,102182.28
2023-03-27T16:24:04.083Z,102178.72
2023-03-27T16:26:32.686Z,102197.78
2023-03-27T16:29:02.622Z,102198.66
2023-03-27T16:31:30.569Z,102193.59
2023-03-27T16:33:58.801Z,102198.25
2023-03-27T16:36:30.754Z,102203.13
2023-03-27T16:38:58.714Z,102199.19
2023-03-27T16:41:26.510Z,102206.22
2023-03-27T16:43:54.399Z,102200.25
2023-03-27T16:46:23.390Z,102220.31
2023-03-27T16:48:52.362Z,102212.44
2023-03-27T16:51:20.756Z,102206.00
2023-03-27T16:53:50.124Z,102212.53
2023-03-27T16:56:17.964Z,102217.59
2023-03-27T16:58:46.302Z,102223.88
2023-03-27T17:01:14.483Z,102225.53
2023-03-27T17:03:42.232Z,102230.59
2023-03-27T17:06:11.431Z,102217.91
2023-03-27T17:08:39.656Z,102221.50
2023-03-27T17:11:09.865Z,102249.56
2023-03-27T17:13:38.149Z,102229.41
2023-03-27T17:16:07.544Z,102239.47
2023-03-27T17:18:36.454Z,102241.63
2023-03-27T17:21:04.557Z,102248.56
2023-03-27T17:23:32.679Z,102232.47
2023-03-27T17:26:00.864Z,102245.44
2023-03-27T17:28:30.051Z,102246.97
2023-03-27T17:31:04.621Z,102259.66
2023-03-27T17:33:33.070Z,102251.75
2023-03-27T17:36:01.966Z,102255.00
2023-03-27T17:38:31.007Z,102261.31
2023-03-27T17:40:59.144Z,102259.16
2023-03-27T17:43:26.960Z,102258.50
2023-03-27T17:45:56.909Z,102251.69
2023-03-27T17:48:25.135Z,102272.69
2023-03-27T17:51:07.383Z,102265.91
2023-03-27T17:53:36.889Z,102265.53
2023-03-27T17:56:05.416Z,102262.44
2023-03-27T17:58:34.410Z,102257.53
2023-03-27T18:01:12.597Z,102270.75
2023-03-27T18:03:40.540Z,102264.16
2023-03-27T18:06:08.642Z,102266.41
2023-03-27T18:08:36.577Z,102274.56
2023-03-27T18:11:07.937Z,102268.25
2023-03-27T18:13:35.874Z,102279.88
2023-03-27T18:16:07.024Z,102276.06
2023-03-27T18:18:35.479Z,102279.31
2023-03-27T18:21:04.639Z,102288.88
2023-03-27T18:23:32.956Z,102281.63
2023-03-27T18:26:03.497Z,102280.22
2023-03-27T18:28:31.334Z,102278.47
2023-03-27T18:31:00.413Z,102281.16
2023-03-27T18:33:29.728Z,102278.13
2023-03-27T18:35:58.490Z,102278.34
2023-03-27T18:38:27.018Z,102289.50
2023-03-27T18:40:55.980Z,102294.69
2023-03-27T18:43:24.807Z,102282.91
2023-03-27T18:45:56.974Z,102292.34
2023-03-27T18:48:25.421Z,102290.50
2023-03-27T18:50:55.751Z,102292.25
2023-03-27T18:53:24.441Z,102293.84
2023-03-27T18:55:53.039Z,102291.59
2023-03-27T18:58:21.483Z,102296.81
2023-03-27T19:00:49.655Z,102299.94
2023-03-27T19:03:20.068Z,102299.78
2023-03-27T19:05:48.936Z,102308.47
2023-03-27T19:08:18.768Z,102320.41
2023-03-27T19:10:46.964Z,102310.13
2023-03-27T19:13:35.051Z,102318.78
2023-03-27T19:16:18.004Z,102312.59
2023-03-27T19:19:04.229Z,102319.44
2023-03-27T19:21:55.524Z,102312.50
2023-03-27T19:24:41.713Z,102325.50
2023-03-27T19:27:23.548Z,102325.63
2023-03-27T19:29:52.426Z,102316.66
2023-03-27T19:32:20.250Z,102326.25
2023-03-27T19:34:48.356Z,102322.50
2023-03-27T19:37:16.283Z,102318.75
2023-03-27T19:39:45.813Z,102323.53
2023-03-27T19:42:14.261Z,102324.63
2023-03-27T19:44:42.757Z,102321.78
2023-03-27T19:47:10.966Z,102330.03
2023-03-27T19:49:38.864Z,102323.41
2023-03-27T19:52:12.866Z,102329.59
2023-03-27T19:54:40.809Z,102328.59
2023-03-27T19:57:10.048Z,102326.31
2023-03-27T19:59:37.867Z,102327.19
2023-03-27T20:02:05.815Z,102328.28
2023-03-27T20:04:33.861Z,102339.88
2023-03-27T20:07:02.825Z,102334.22
2023-03-27T20:09:30.873Z,102342.84
2023-03-27T20:11:58.707Z,102347.84
2023-03-27T20:14:28.478Z,102356.31
2023-03-27T20:16:56.528Z,102351.19
2023-03-27T20:19:30.270Z,102353.25
2023-03-27T20:22:00.385Z,102354.41
2023-03-27T20:24:29.359Z,102337.78
2023-03-27T20:27:00.466Z,102337.22
2023-03-27T20:29:29.662Z,102338.53
2023-03-27T20:31:57.782Z,102351.78
2023-03-27T20:34:25.687Z,102366.84
2023-03-27T20:36:54.895Z,102353.09
2023-03-27T20:39:48.688Z,102346.34
2023-03-27T20:42:22.867Z,102342.06
2023-03-27T20:44:55.314Z,102343.34
2023-03-27T20:47:23.285Z,102346.91
2023-03-27T20:49:51.287Z,102352.56
2023-03-27T20:52:19.982Z,102351.19
2023-03-27T20:54:48.168Z,102359.88
2023-03-27T20:57:18.904Z,102369.22
2023-03-27T20:59:48.293Z,102369.34
2023-03-27T21:02:18.523Z,102365.13
2023-03-27T21:04:46.756Z,102375.94
2023-03-27T21:07:15.777Z,102378.84
2023-03-27T21:09:45.836Z,102370.25
2023-03-27T21:12:13.826Z,102365.28
2023-03-27T21:14:41.648Z,102352.59
2023-03-27T21:17:12.192Z,102363.78
2023-03-27T21:19:41.322Z,102359.78
2023-03-27T21:22:09.138Z,102356.63
2023-03-27T21:24:37.024Z,102360.63
2023-03-27T21:27:05.186Z,102359.06
2023-03-27T21:29:32.920Z,102379.69
2023-03-27T21:32:00.682Z,102373.97
2023-03-27T21:34:28.576Z,102372.41
2023-03-27T21:36:58.310Z,102371.84
2023-03-27T21:39:26.240Z,102368.41
2023-03-27T21:41:54.050Z,102378.09
2023-03-27T21:44:21.780Z,102385.66
2023-03-27T21:46:49.755Z,102392.47
2023-03-27T21:49:17.699Z,102392.84
2023-03-27T21:51:45.665Z,102374.00
2023-03-27T21:54:14.845Z,102383.59
2023-03-27T21:56:42.808Z,102385.22
2023-03-27T21:59:10.846Z,102369.47
2023-03-27T22:01:38.840Z,102391.19
2023-03-27T22:04:06.751Z,102368.66
2023-03-27T22:06:34.810Z,102376.28
2023-03-27T22:09:02.684Z,102371.31
2023-03-27T22:11:31.900Z,102373.78
2023-03-27T22:14:00.596Z,102370.56
2023-03-27T22:16:28.446Z,102378.38
2023-03-27T22:18:56.981Z,102373.22
2023-03-27T22:21:25.852Z,102373.22
2023-03-27T22:23:54.855Z,102382.28
2023-03-27T22:26:23.791Z,102393.75
2023-03-27T22:28:53.330Z,102392.09
2023-03-27T22:31:21.263Z,102385.00
2023-03-27T22:33:49.341Z,102389.78
2023-03-27T22:36:17.482Z,102384.81
2023-03-27T22:38:45.152Z,102396.31
2023-03-27T22:41:13.537Z,102402.31
2023-03-27T22:43:41.725Z,102400.34
2023-03-27T22:46:12.461Z,102393.41
2023-03-27T22:48:40.336Z,102409.53
2023-03-27T22:51:08.826Z,102396.75
2023-03-27T22:53:37.233Z,102407.22
2023-03-27T22:56:05.422Z,102399.34
2023-03-27T22:58:33.432Z,102405.28
2023-03-27T23:01:01.618Z,102405.06
2023-03-27T23:03:31.222Z,102411.66
2023-03-27T23:05:59.678Z,102417.50
2023-03-27T23:08:28.568Z,102411.13
2023-03-27T23:10:57.656Z,102413.84
2023-03-27T23:13:25.707Z,102409.91
2023-03-27T23:15:54.117Z,102416.84
2023-03-27T23:18:24.553Z,102426.13
2023-03-27T23:20:57.641Z,102424.72
2023-03-27T23:23:25.508Z,102430.78
2023-03-27T23:25:53.529Z,102431.66
2023-03-27T23:28:21.532Z,102433.50
2023-03-27T23:30:56.521Z,102439.03
2023-03-27T23:33:25.309Z,102438.44
2023-03-27T23:35:53.868Z,102441.63
2023-03-27T23:38:23.057Z,102447.75
2023-03-27T23:40:55.814Z,102447.25
2023-03-27T23:43:23.604Z,102458.84
2023-03-27T23:45:51.336Z,102452.84
2023-03-27T23:48:19.170Z,102456.44
2023-03-27T23:50:47.104Z,102458.81
2023-03-27T23:53:15.082Z,102453.41
2023-03-27T23:55:44.398Z,102459.28
2023-03-27T23:58:12.238Z,102455.69
